sensor_id;sensor_type;location;lat;lon;timestamp;temperature;humidity
68578;SHT31;61668;45.388;11.784;2022-11-13T00:00:55;12.74;76.26
68578;SHT31;61668;45.388;11.784;2022-11-13T00:03:21;12.69;76.13
68578;SHT31;61668;45.388;11.784;2022-11-13T00:05:47;12.64;76.01
68578;SHT31;61668;45.388;11.784;2022-11-13T00:08:13;12.60;76.03
68578;SHT31;61668;45.388;11.784;2022-11-13T00:10:38;12.55;76.11
68578;SHT31;61668;45.388;11.784;2022-11-13T00:13:04;12.49;76.25
68578;SHT31;61668;45.388;11.784;2022-11-13T00:15:30;12.43;76.35
68578;SHT31;61668;45.388;11.784;2022-11-13T00:17:59;12.36;76.33
68578;SHT31;61668;45.388;11.784;2022-11-13T00:20:26;12.28;76.31
68578;SHT31;61668;45.388;11.784;2022-11-13T00:22:51;12.21;76.28
68578;SHT31;61668;45.388;11.784;2022-11-13T00:25:17;12.17;76.17
68578;SHT31;61668;45.388;11.784;2022-11-13T00:27:42;12.14;75.60
68578;SHT31;61668;45.388;11.784;2022-11-13T00:30:08;12.13;75.22
68578;SHT31;61668;45.388;11.784;2022-11-13T00:32:34;12.13;74.83
68578;SHT31;61668;45.388;11.784;2022-11-13T00:35:01;12.12;74.57
68578;SHT31;61668;45.388;11.784;2022-11-13T00:37:28;12.11;74.30
68578;SHT31;61668;45.388;11.784;2022-11-13T00:39:53;12.09;74.00
68578;SHT31;61668;45.388;11.784;2022-11-13T00:42:19;12.08;73.71
68578;SHT31;61668;45.388;11.784;2022-11-13T00:44:44;12.07;73.69
68578;SHT31;61668;45.388;11.784;2022-11-13T00:47:10;12.04;73.69
68578;SHT31;61668;45.388;11.784;2022-11-13T00:49:35;12.00;73.63
68578;SHT31;61668;45.388;11.784;2022-11-13T00:52:01;11.98;73.54
68578;SHT31;61668;45.388;11.784;2022-11-13T00:54:27;11.99;73.42
68578;SHT31;61668;45.388;11.784;2022-11-13T00:56:53;12.01;73.12
68578;SHT31;61668;45.388;11.784;2022-11-13T00:59:18;12.02;72.91
68578;SHT31;61668;45.388;11.784;2022-11-13T01:01:43;12.05;72.80
68578;SHT31;61668;45.388;11.784;2022-11-13T01:04:09;12.04;72.71
68578;SHT31;61668;45.388;11.784;2022-11-13T01:06:34;12.03;72.73
68578;SHT31;61668;45.388;11.784;2022-11-13T01:09:00;12.00;72.66
68578;SHT31;61668;45.388;11.784;2022-11-13T01:11:27;11.97;72.68
68578;SHT31;61668;45.388;11.784;2022-11-13T01:13:55;11.94;72.57
68578;SHT31;61668;45.388;11.784;2022-11-13T01:16:22;11.88;72.49
68578;SHT31;61668;45.388;11.784;2022-11-13T01:18:52;11.83;72.59
68578;SHT31;61668;45.388;11.784;2022-11-13T01:21:20;11.77;72.76
68578;SHT31;61668;45.388;11.784;2022-11-13T01:23:49;11.73;72.86
68578;SHT31;61668;45.388;11.784;2022-11-13T01:26:16;11.70;72.92
68578;SHT31;61668;45.388;11.784;2022-11-13T01:28:44;11.69;73.05
68578;SHT31;61668;45.388;11.784;2022-11-13T01:31:11;11.69;73.23
68578;SHT31;61668;45.388;11.784;2022-11-13T01:33:41;11.68;73.24
68578;SHT31;61668;45.388;11.784;2022-11-13T01:36:18;11.65;73.34
68578;SHT31;61668;45.388;11.784;2022-11-13T01:38:46;11.60;73.49
68578;SHT31;61668;45.388;11.784;2022-11-13T01:41:19;11.55;73.54
68578;SHT31;61668;45.388;11.784;2022-11-13T01:43:53;11.48;73.64
68578;SHT31;61668;45.388;11.784;2022-11-13T01:46:21;11.39;73.71
68578;SHT31;61668;45.388;11.784;2022-11-13T01:48:53;11.31;73.80
68578;SHT31;61668;45.388;11.784;2022-11-13T01:54:43;11.13;73.93
68578;SHT31;61668;45.388;11.784;2022-11-13T01:57:20;11.05;74.03
68578;SHT31;61668;45.388;11.784;2022-11-13T01:59:50;11.02;74.10
68578;SHT31;61668;45.388;11.784;2022-11-13T02:02:22;10.98;74.18
68578;SHT31;61668;45.388;11.784;2022-11-13T02:04:47;10.96;74.24
68578;SHT31;61668;45.388;11.784;2022-11-13T02:07:14;10.92;74.37
68578;SHT31;61668;45.388;11.784;2022-11-13T02:09:43;10.88;74.44
68578;SHT31;61668;45.388;11.784;2022-11-13T02:12:14;10.82;74.57
68578;SHT31;61668;45.388;11.784;2022-11-13T02:14:45;10.73;74.69
68578;SHT31;61668;45.388;11.784;2022-11-13T02:17:14;10.65;74.86
68578;SHT31;61668;45.388;11.784;2022-11-13T02:19:56;10.60;75.00
68578;SHT31;61668;45.388;11.784;2022-11-13T02:25:29;10.53;75.13
68578;SHT31;61668;45.388;11.784;2022-11-13T02:27:55;10.49;75.20
68578;SHT31;61668;45.388;11.784;2022-11-13T02:32:50;10.46;75.21
68578;SHT31;61668;45.388;11.784;2022-11-13T02:35:19;10.46;75.32
68578;SHT31;61668;45.388;11.784;2022-11-13T02:37:49;10.48;75.39
68578;SHT31;61668;45.388;11.784;2022-11-13T02:40:15;10.48;75.35
68578;SHT31;61668;45.388;11.784;2022-11-13T02:42:41;10.48;75.05
68578;SHT31;61668;45.388;11.784;2022-11-13T02:45:06;10.47;74.91
68578;SHT31;61668;45.388;11.784;2022-11-13T02:47:35;10.45;74.76
68578;SHT31;61668;45.388;11.784;2022-11-13T02:50:01;10.44;74.28
68578;SHT31;61668;45.388;11.784;2022-11-13T02:52:28;10.43;73.96
68578;SHT31;61668;45.388;11.784;2022-11-13T02:54:55;10.43;73.59
68578;SHT31;61668;45.388;11.784;2022-11-13T02:57:20;10.44;73.35
68578;SHT31;61668;45.388;11.784;2022-11-13T02:59:46;10.45;73.21
68578;SHT31;61668;45.388;11.784;2022-11-13T03:02:11;10.47;73.13
68578;SHT31;61668;45.388;11.784;2022-11-13T03:04:37;10.48;73.04
68578;SHT31;61668;45.388;11.784;2022-11-13T03:07:02;10.50;72.79
68578;SHT31;61668;45.388;11.784;2022-11-13T03:09:28;10.53;72.55
68578;SHT31;61668;45.388;11.784;2022-11-13T03:11:54;10.56;72.48
68578;SHT31;61668;45.388;11.784;2022-11-13T03:14:19;10.59;72.35
68578;SHT31;61668;45.388;11.784;2022-11-13T03:16:45;10.61;72.54
68578;SHT31;61668;45.388;11.784;2022-11-13T03:19:11;10.61;72.53
68578;SHT31;61668;45.388;11.784;2022-11-13T03:21:36;10.62;72.43
68578;SHT31;61668;45.388;11.784;2022-11-13T03:24:02;10.64;72.21
68578;SHT31;61668;45.388;11.784;2022-11-13T03:26:28;10.68;71.93
68578;SHT31;61668;45.388;11.784;2022-11-13T03:28:53;10.73;71.72
68578;SHT31;61668;45.388;11.784;2022-11-13T03:31:19;10.78;71.29
68578;SHT31;61668;45.388;11.784;2022-11-13T03:33:45;10.84;71.14
68578;SHT31;61668;45.388;11.784;2022-11-13T03:36:11;10.87;71.09
68578;SHT31;61668;45.388;11.784;2022-11-13T03:38:36;10.87;70.89
68578;SHT31;61668;45.388;11.784;2022-11-13T03:41:02;10.89;70.51
68578;SHT31;61668;45.388;11.784;2022-11-13T03:43:29;10.91;70.39
68578;SHT31;61668;45.388;11.784;2022-11-13T03:45:55;10.92;70.31
68578;SHT31;61668;45.388;11.784;2022-11-13T03:48:20;10.92;70.10
68578;SHT31;61668;45.388;11.784;2022-11-13T03:50:47;10.92;69.85
68578;SHT31;61668;45.388;11.784;2022-11-13T03:53:16;10.92;69.84
68578;SHT31;61668;45.388;11.784;2022-11-13T03:55:42;10.93;69.91
68578;SHT31;61668;45.388;11.784;2022-11-13T03:58:08;10.93;70.07
68578;SHT31;61668;45.388;11.784;2022-11-13T04:00:34;10.92;69.98
68578;SHT31;61668;45.388;11.784;2022-11-13T04:03:01;10.94;69.65
68578;SHT31;61668;45.388;11.784;2022-11-13T04:05:27;10.99;69.20
68578;SHT31;61668;45.388;11.784;2022-11-13T04:07:52;11.04;69.16
68578;SHT31;61668;45.388;11.784;2022-11-13T04:10:18;11.08;69.19
68578;SHT31;61668;45.388;11.784;2022-11-13T04:12:44;11.09;69.13
68578;SHT31;61668;45.388;11.784;2022-11-13T04:15:09;11.08;69.13
68578;SHT31;61668;45.388;11.784;2022-11-13T04:17:35;11.09;68.78
68578;SHT31;61668;45.388;11.784;2022-11-13T04:20:00;11.08;68.68
68578;SHT31;61668;45.388;11.784;2022-11-13T04:22:26;11.07;68.61
68578;SHT31;61668;45.388;11.784;2022-11-13T04:24:51;11.04;68.67
68578;SHT31;61668;45.388;11.784;2022-11-13T04:27:16;11.01;68.71
68578;SHT31;61668;45.388;11.784;2022-11-13T04:29:42;10.97;68.91
68578;SHT31;61668;45.388;11.784;2022-11-13T04:32:07;10.92;68.90
68578;SHT31;61668;45.388;11.784;2022-11-13T04:34:33;10.88;68.82
68578;SHT31;61668;45.388;11.784;2022-11-13T04:36:59;10.86;68.94
68578;SHT31;61668;45.388;11.784;2022-11-13T04:39:24;10.84;68.80
68578;SHT31;61668;45.388;11.784;2022-11-13T04:41:50;10.83;68.85
68578;SHT31;61668;45.388;11.784;2022-11-13T04:44:34;10.81;68.94
68578;SHT31;61668;45.388;11.784;2022-11-13T04:46:59;10.79;69.08
68578;SHT31;61668;45.388;11.784;2022-11-13T04:49:25;10.77;69.08
68578;SHT31;61668;45.388;11.784;2022-11-13T04:51:50;10.74;69.13
68578;SHT31;61668;45.388;11.784;2022-11-13T04:54:16;10.70;69.25
68578;SHT31;61668;45.388;11.784;2022-11-13T04:56:41;10.67;69.25
68578;SHT31;61668;45.388;11.784;2022-11-13T04:59:07;10.63;69.22
68578;SHT31;61668;45.388;11.784;2022-11-13T05:01:33;10.60;69.35
68578;SHT31;61668;45.388;11.784;2022-11-13T05:04:00;10.57;69.32
68578;SHT31;61668;45.388;11.784;2022-11-13T05:06:26;10.55;69.34
68578;SHT31;61668;45.388;11.784;2022-11-13T05:08:52;10.54;69.39
68578;SHT31;61668;45.388;11.784;2022-11-13T05:11:17;10.52;69.45
68578;SHT31;61668;45.388;11.784;2022-11-13T05:13:43;10.50;69.47
68578;SHT31;61668;45.388;11.784;2022-11-13T05:16:09;10.48;69.47
68578;SHT31;61668;45.388;11.784;2022-11-13T05:18:37;10.46;69.45
68578;SHT31;61668;45.388;11.784;2022-11-13T05:21:05;10.43;69.49
68578;SHT31;61668;45.388;11.784;2022-11-13T05:23:32;10.39;69.66
68578;SHT31;61668;45.388;11.784;2022-11-13T05:26:06;10.34;69.70
68578;SHT31;61668;45.388;11.784;2022-11-13T05:28:35;10.29;69.75
68578;SHT31;61668;45.388;11.784;2022-11-13T05:31:05;10.22;69.87
68578;SHT31;61668;45.388;11.784;2022-11-13T05:33:37;10.18;70.00
68578;SHT31;61668;45.388;11.784;2022-11-13T05:36:04;10.13;70.00
68578;SHT31;61668;45.388;11.784;2022-11-13T05:38:33;10.11;70.09
68578;SHT31;61668;45.388;11.784;2022-11-13T05:41:21;10.08;70.12
68578;SHT31;61668;45.388;11.784;2022-11-13T05:43:47;10.05;70.23
68578;SHT31;61668;45.388;11.784;2022-11-13T05:46:14;10.03;70.33
68578;SHT31;61668;45.388;11.784;2022-11-13T05:48:40;10.01;70.41
68578;SHT31;61668;45.388;11.784;2022-11-13T05:51:08;10.00;70.48
68578;SHT31;61668;45.388;11.784;2022-11-13T05:53:42;9.99;70.51
68578;SHT31;61668;45.388;11.784;2022-11-13T05:56:13;9.97;70.57
68578;SHT31;61668;45.388;11.784;2022-11-13T05:58:46;9.95;70.64
68578;SHT31;61668;45.388;11.784;2022-11-13T06:03:51;9.90;70.79
68578;SHT31;61668;45.388;11.784;2022-11-13T06:06:20;9.86;70.89
68578;SHT31;61668;45.388;11.784;2022-11-13T06:08:47;9.84;70.93
68578;SHT31;61668;45.388;11.784;2022-11-13T06:11:16;9.83;71.02
68578;SHT31;61668;45.388;11.784;2022-11-13T06:13:45;9.81;71.10
68578;SHT31;61668;45.388;11.784;2022-11-13T06:16:13;9.82;71.19
68578;SHT31;61668;45.388;11.784;2022-11-13T06:18:42;9.81;71.28
68578;SHT31;61668;45.388;11.784;2022-11-13T06:21:10;9.81;71.40
68578;SHT31;61668;45.388;11.784;2022-11-13T06:23:39;9.80;71.50
68578;SHT31;61668;45.388;11.784;2022-11-13T06:26:06;9.78;71.50
68578;SHT31;61668;45.388;11.784;2022-11-13T06:28:33;9.78;71.59
68578;SHT31;61668;45.388;11.784;2022-11-13T06:31:03;9.78;71.61
68578;SHT31;61668;45.388;11.784;2022-11-13T06:33:35;9.77;71.69
68578;SHT31;61668;45.388;11.784;2022-11-13T06:36:02;9.77;71.70
68578;SHT31;61668;45.388;11.784;2022-11-13T06:38:34;9.78;71.73
68578;SHT31;61668;45.388;11.784;2022-11-13T06:41:02;9.79;71.73
68578;SHT31;61668;45.388;11.784;2022-11-13T06:43:29;9.81;71.73
68578;SHT31;61668;45.388;11.784;2022-11-13T06:45:55;9.81;71.73
68578;SHT31;61668;45.388;11.784;2022-11-13T06:48:22;9.82;71.77
68578;SHT31;61668;45.388;11.784;2022-11-13T06:50:48;9.82;71.83
68578;SHT31;61668;45.388;11.784;2022-11-13T06:53:15;9.82;71.89
68578;SHT31;61668;45.388;11.784;2022-11-13T06:55:44;9.83;71.96
68578;SHT31;61668;45.388;11.784;2022-11-13T06:58:13;9.86;72.01
68578;SHT31;61668;45.388;11.784;2022-11-13T07:00:40;9.88;72.08
68578;SHT31;61668;45.388;11.784;2022-11-13T07:03:11;9.95;72.20
68578;SHT31;61668;45.388;11.784;2022-11-13T07:05:41;10.01;72.25
68578;SHT31;61668;45.388;11.784;2022-11-13T07:08:06;10.10;72.26
68578;SHT31;61668;45.388;11.784;2022-11-13T07:10:32;10.19;72.18
68578;SHT31;61668;45.388;11.784;2022-11-13T07:12:58;10.31;72.07
68578;SHT31;61668;45.388;11.784;2022-11-13T07:15:24;10.43;72.05
68578;SHT31;61668;45.388;11.784;2022-11-13T07:17:51;10.56;71.93
68578;SHT31;61668;45.388;11.784;2022-11-13T07:20:17;10.68;71.77
68578;SHT31;61668;45.388;11.784;2022-11-13T07:22:42;10.77;71.80
68578;SHT31;61668;45.388;11.784;2022-11-13T07:25:08;10.87;71.76
68578;SHT31;61668;45.388;11.784;2022-11-13T07:27:33;10.94;71.76
68578;SHT31;61668;45.388;11.784;2022-11-13T07:29:59;11.02;71.74
68578;SHT31;61668;45.388;11.784;2022-11-13T07:32:24;11.08;71.53
68578;SHT31;61668;45.388;11.784;2022-11-13T07:34:50;11.14;71.41
68578;SHT31;61668;45.388;11.784;2022-11-13T07:37:15;11.20;71.14
68578;SHT31;61668;45.388;11.784;2022-11-13T07:39:41;11.27;71.24
68578;SHT31;61668;45.388;11.784;2022-11-13T07:42:07;11.32;71.08
68578;SHT31;61668;45.388;11.784;2022-11-13T07:44:33;11.39;70.76
68578;SHT31;61668;45.388;11.784;2022-11-13T07:46:58;11.52;70.54
68578;SHT31;61668;45.388;11.784;2022-11-13T07:49:24;11.72;70.24
68578;SHT31;61668;45.388;11.784;2022-11-13T07:51:50;11.94;70.06
68578;SHT31;61668;45.388;11.784;2022-11-13T07:54:15;12.20;69.72
68578;SHT31;61668;45.388;11.784;2022-11-13T07:56:41;12.47;69.05
68578;SHT31;61668;45.388;11.784;2022-11-13T07:59:06;12.78;68.48
68578;SHT31;61668;45.388;11.784;2022-11-13T08:01:32;13.06;66.93
68578;SHT31;61668;45.388;11.784;2022-11-13T08:03:57;13.37;66.89
68578;SHT31;61668;45.388;11.784;2022-11-13T08:06:22;13.71;66.46
68578;SHT31;61668;45.388;11.784;2022-11-13T08:08:48;14.02;65.19
68578;SHT31;61668;45.388;11.784;2022-11-13T08:11:14;14.35;64.86
68578;SHT31;61668;45.388;11.784;2022-11-13T08:13:39;14.65;63.55
68578;SHT31;61668;45.388;11.784;2022-11-13T08:16:05;14.94;62.36
68578;SHT31;61668;45.388;11.784;2022-11-13T08:18:31;15.19;61.88
68578;SHT31;61668;45.388;11.784;2022-11-13T08:20:59;15.43;61.53
68578;SHT31;61668;45.388;11.784;2022-11-13T08:23:26;15.71;61.33
68578;SHT31;61668;45.388;11.784;2022-11-13T08:25:52;16.01;61.40
68578;SHT31;61668;45.388;11.784;2022-11-13T08:28:18;16.28;60.28
68578;SHT31;61668;45.388;11.784;2022-11-13T08:30:44;16.48;58.31
68578;SHT31;61668;45.388;11.784;2022-11-13T08:33:10;16.66;57.46
68578;SHT31;61668;45.388;11.784;2022-11-13T08:35:35;16.87;57.67
68578;SHT31;61668;45.388;11.784;2022-11-13T08:38:04;17.13;57.48
68578;SHT31;61668;45.388;11.784;2022-11-13T08:40:32;17.36;56.87
68578;SHT31;61668;45.388;11.784;2022-11-13T08:42:58;17.60;56.05
68578;SHT31;61668;45.388;11.784;2022-11-13T08:45:28;17.83;54.68
68578;SHT31;61668;45.388;11.784;2022-11-13T08:47:59;18.12;54.59
68578;SHT31;61668;45.388;11.784;2022-11-13T08:50:29;18.36;53.06
68578;SHT31;61668;45.388;11.784;2022-11-13T08:52:57;18.61;53.41
68578;SHT31;61668;45.388;11.784;2022-11-13T08:55:25;18.86;53.25
68578;SHT31;61668;45.388;11.784;2022-11-13T08:57:52;19.05;52.32
68578;SHT31;61668;45.388;11.784;2022-11-13T09:00:18;19.21;51.44
68578;SHT31;61668;45.388;11.784;2022-11-13T09:02:45;19.35;50.49
68578;SHT31;61668;45.388;11.784;2022-11-13T09:05:10;19.40;48.77
68578;SHT31;61668;45.388;11.784;2022-11-13T09:07:36;19.44;48.53
68578;SHT31;61668;45.388;11.784;2022-11-13T09:10:02;19.49;48.10
68578;SHT31;61668;45.388;11.784;2022-11-13T09:12:28;19.49;47.67
68578;SHT31;61668;45.388;11.784;2022-11-13T09:14:54;19.57;48.15
68578;SHT31;61668;45.388;11.784;2022-11-13T09:17:20;19.66;48.50
68578;SHT31;61668;45.388;11.784;2022-11-13T09:19:45;19.77;47.91
68578;SHT31;61668;45.388;11.784;2022-11-13T09:22:11;19.91;48.20
68578;SHT31;61668;45.388;11.784;2022-11-13T09:24:37;19.93;46.48
68578;SHT31;61668;45.388;11.784;2022-11-13T09:27:02;19.92;47.17
68578;SHT31;61668;45.388;11.784;2022-11-13T09:29:28;19.95;46.22
68578;SHT31;61668;45.388;11.784;2022-11-13T09:31:54;19.89;46.03
68578;SHT31;61668;45.388;11.784;2022-11-13T09:34:20;19.83;46.79
68578;SHT31;61668;45.388;11.784;2022-11-13T09:36:46;19.56;46.91
68578;SHT31;61668;45.388;11.784;2022-11-13T09:39:12;19.24;46.99
68578;SHT31;61668;45.388;11.784;2022-11-13T09:41:48;18.97;47.98
68578;SHT31;61668;45.388;11.784;2022-11-13T09:47:19;18.36;48.84
68578;SHT31;61668;45.388;11.784;2022-11-13T09:49:50;18.09;49.63
68578;SHT31;61668;45.388;11.784;2022-11-13T09:55:01;17.67;51.27
68578;SHT31;61668;45.388;11.784;2022-11-13T10:00:20;17.29;51.31
68578;SHT31;61668;45.388;11.784;2022-11-13T10:05:51;16.98;52.66
68578;SHT31;61668;45.388;11.784;2022-11-13T10:08:26;16.88;52.65
68578;SHT31;61668;45.388;11.784;2022-11-13T10:14:20;16.62;53.33
68578;SHT31;61668;45.388;11.784;2022-11-13T10:17:01;16.58;53.67
68578;SHT31;61668;45.388;11.784;2022-11-13T10:20:02;16.53;54.28
68578;SHT31;61668;45.388;11.784;2022-11-13T10:25:19;16.46;54.71
68578;SHT31;61668;45.388;11.784;2022-11-13T10:27:57;16.44;54.69
68578;SHT31;61668;45.388;11.784;2022-11-13T10:34:03;16.37;54.79
68578;SHT31;61668;45.388;11.784;2022-11-13T10:39:21;16.28;55.55
68578;SHT31;61668;45.388;11.784;2022-11-13T10:41:48;16.27;55.80
68578;SHT31;61668;45.388;11.784;2022-11-13T10:49:41;16.19;55.79
68578;SHT31;61668;45.388;11.784;2022-11-13T10:52:42;16.13;56.06
68578;SHT31;61668;45.388;11.784;2022-11-13T10:57:56;16.08;56.53
68578;SHT31;61668;45.388;11.784;2022-11-13T11:00:34;16.06;56.52
68578;SHT31;61668;45.388;11.784;2022-11-13T11:03:02;16.06;56.91
68578;SHT31;61668;45.388;11.784;2022-11-13T11:05:54;16.08;56.96
68578;SHT31;61668;45.388;11.784;2022-11-13T11:08:37;16.10;56.80
68578;SHT31;61668;45.388;11.784;2022-11-13T11:11:07;16.09;56.53
68578;SHT31;61668;45.388;11.784;2022-11-13T11:16:56;16.07;56.45
68578;SHT31;61668;45.388;11.784;2022-11-13T11:19:26;16.08;56.72
68578;SHT31;61668;45.388;11.784;2022-11-13T11:22:15;16.09;56.07
68578;SHT31;61668;45.388;11.784;2022-11-13T11:24:47;16.10;56.53
68578;SHT31;61668;45.388;11.784;2022-11-13T11:27:35;16.08;56.28
68578;SHT31;61668;45.388;11.784;2022-11-13T11:30:20;16.07;56.17
68578;SHT31;61668;45.388;11.784;2022-11-13T11:35:39;16.02;56.48
68578;SHT31;61668;45.388;11.784;2022-11-13T11:41:22;15.95;57.15
68578;SHT31;61668;45.388;11.784;2022-11-13T11:43:58;15.97;56.94
68578;SHT31;61668;45.388;11.784;2022-11-13T11:46:36;15.99;56.96
68578;SHT31;61668;45.388;11.784;2022-11-13T11:49:01;16.05;57.62
68578;SHT31;61668;45.388;11.784;2022-11-13T11:51:31;16.09;57.22
68578;SHT31;61668;45.388;11.784;2022-11-13T11:57:11;16.13;56.75
68578;SHT31;61668;45.388;11.784;2022-11-13T12:00:12;16.14;56.83
68578;SHT31;61668;45.388;11.784;2022-11-13T12:05:30;16.11;56.59
68578;SHT31;61668;45.388;11.784;2022-11-13T12:08:34;16.10;56.73
68578;SHT31;61668;45.388;11.784;2022-11-13T12:28:13;15.80;57.51
68578;SHT31;61668;45.388;11.784;2022-11-13T12:31:08;15.77;57.84
68578;SHT31;61668;45.388;11.784;2022-11-13T12:34:10;15.76;58.08
68578;SHT31;61668;45.388;11.784;2022-11-13T12:37:05;15.77;57.88
68578;SHT31;61668;45.388;11.784;2022-11-13T12:48:06;15.69;57.41
68578;SHT31;61668;45.388;11.784;2022-11-13T12:50:57;15.70;57.10
68578;SHT31;61668;45.388;11.784;2022-11-13T12:53:26;15.73;57.00
68578;SHT31;61668;45.388;11.784;2022-11-13T12:55:56;15.74;57.24
68578;SHT31;61668;45.388;11.784;2022-11-13T12:58:26;15.76;57.51
68578;SHT31;61668;45.388;11.784;2022-11-13T13:00:57;15.76;56.97
68578;SHT31;61668;45.388;11.784;2022-11-13T13:09:51;15.81;57.17
68578;SHT31;61668;45.388;11.784;2022-11-13T13:12:53;15.84;57.03
68578;SHT31;61668;45.388;11.784;2022-11-13T13:15:38;15.87;57.01
68578;SHT31;61668;45.388;11.784;2022-11-13T13:18:09;15.89;57.03
68578;SHT31;61668;45.388;11.784;2022-11-13T13:20:37;15.91;57.28
68578;SHT31;61668;45.388;11.784;2022-11-13T13:23:08;15.93;57.26
68578;SHT31;61668;45.388;11.784;2022-11-13T13:25:37;15.96;57.08
68578;SHT31;61668;45.388;11.784;2022-11-13T13:30:44;15.99;57.27
68578;SHT31;61668;45.388;11.784;2022-11-13T13:36:19;15.96;57.20
68578;SHT31;61668;45.388;11.784;2022-11-13T13:42:15;15.90;57.85
68578;SHT31;61668;45.388;11.784;2022-11-13T13:45:08;15.84;57.75
68578;SHT31;61668;45.388;11.784;2022-11-13T13:47:56;15.75;57.64
68578;SHT31;61668;45.388;11.784;2022-11-13T13:50:32;15.69;58.00
68578;SHT31;61668;45.388;11.784;2022-11-13T13:53:04;15.63;58.30
68578;SHT31;61668;45.388;11.784;2022-11-13T13:55:34;15.57;58.33
68578;SHT31;61668;45.388;11.784;2022-11-13T13:58:06;15.50;58.60
68578;SHT31;61668;45.388;11.784;2022-11-13T14:00:35;15.45;58.80
68578;SHT31;61668;45.388;11.784;2022-11-13T14:03:01;15.39;59.03
68578;SHT31;61668;45.388;11.784;2022-11-13T14:07:59;15.30;59.38
68578;SHT31;61668;45.388;11.784;2022-11-13T14:10:31;15.26;59.39
68578;SHT31;61668;45.388;11.784;2022-11-13T14:13:00;15.22;59.52
68578;SHT31;61668;45.388;11.784;2022-11-13T14:15:30;15.19;59.70
68578;SHT31;61668;45.388;11.784;2022-11-13T14:18:06;15.16;59.82
68578;SHT31;61668;45.388;11.784;2022-11-13T14:23:11;15.09;60.24
68578;SHT31;61668;45.388;11.784;2022-11-13T14:26:02;15.05;60.58
68578;SHT31;61668;45.388;11.784;2022-11-13T14:28:30;15.02;60.72
68578;SHT31;61668;45.388;11.784;2022-11-13T14:31:08;14.98;60.84
68578;SHT31;61668;45.388;11.784;2022-11-13T14:33:41;14.98;61.02
68578;SHT31;61668;45.388;11.784;2022-11-13T14:36:11;14.97;61.31
68578;SHT31;61668;45.388;11.784;2022-11-13T14:38:40;14.97;61.47
68578;SHT31;61668;45.388;11.784;2022-11-13T14:41:20;14.97;61.62
68578;SHT31;61668;45.388;11.784;2022-11-13T14:43:53;14.97;61.94
68578;SHT31;61668;45.388;11.784;2022-11-13T14:48:59;14.99;61.97
68578;SHT31;61668;45.388;11.784;2022-11-13T14:51:29;15.00;62.03
68578;SHT31;61668;45.388;11.784;2022-11-13T14:54:00;15.01;62.17
68578;SHT31;61668;45.388;11.784;2022-11-13T14:56:32;15.02;62.15
68578;SHT31;61668;45.388;11.784;2022-11-13T14:59:08;15.02;62.23
68578;SHT31;61668;45.388;11.784;2022-11-13T15:01:37;15.01;62.36
68578;SHT31;61668;45.388;11.784;2022-11-13T15:04:03;15.00;62.40
68578;SHT31;61668;45.388;11.784;2022-11-13T15:06:36;14.98;62.59
68578;SHT31;61668;45.388;11.784;2022-11-13T15:09:11;14.96;62.99
68578;SHT31;61668;45.388;11.784;2022-11-13T15:11:39;14.94;63.30
68578;SHT31;61668;45.388;11.784;2022-11-13T15:14:15;14.91;63.41
68578;SHT31;61668;45.388;11.784;2022-11-13T15:16:44;14.88;63.45
68578;SHT31;61668;45.388;11.784;2022-11-13T15:19:27;14.85;63.75
68578;SHT31;61668;45.388;11.784;2022-11-13T15:21:58;14.81;63.83
68578;SHT31;61668;45.388;11.784;2022-11-13T15:24:25;14.76;63.95
68578;SHT31;61668;45.388;11.784;2022-11-13T15:26:51;14.70;64.20
68578;SHT31;61668;45.388;11.784;2022-11-13T15:29:17;14.65;64.09
68578;SHT31;61668;45.388;11.784;2022-11-13T15:31:43;14.63;64.22
68578;SHT31;61668;45.388;11.784;2022-11-13T15:34:11;14.60;64.33
68578;SHT31;61668;45.388;11.784;2022-11-13T15:36:38;14.57;64.51
68578;SHT31;61668;45.388;11.784;2022-11-13T15:39:05;14.56;64.68
68578;SHT31;61668;45.388;11.784;2022-11-13T15:41:32;14.57;64.90
68578;SHT31;61668;45.388;11.784;2022-11-13T15:44:00;14.59;65.11
68578;SHT31;61668;45.388;11.784;2022-11-13T15:46:29;14.59;65.25
68578;SHT31;61668;45.388;11.784;2022-11-13T15:48:54;14.57;65.33
68578;SHT31;61668;45.388;11.784;2022-11-13T15:51:24;14.55;65.46
68578;SHT31;61668;45.388;11.784;2022-11-13T15:54:27;14.52;65.49
68578;SHT31;61668;45.388;11.784;2022-11-13T15:57:00;14.47;65.75
68578;SHT31;61668;45.388;11.784;2022-11-13T15:59:26;14.41;65.96
68578;SHT31;61668;45.388;11.784;2022-11-13T16:01:51;14.36;66.30
68578;SHT31;61668;45.388;11.784;2022-11-13T16:04:19;14.31;66.51
68578;SHT31;61668;45.388;11.784;2022-11-13T16:06:44;14.28;66.63
68578;SHT31;61668;45.388;11.784;2022-11-13T16:09:13;14.28;66.57
68578;SHT31;61668;45.388;11.784;2022-11-13T16:11:40;14.25;66.59
68578;SHT31;61668;45.388;11.784;2022-11-13T16:14:06;14.24;66.77
68578;SHT31;61668;45.388;11.784;2022-11-13T16:16:34;14.25;66.88
68578;SHT31;61668;45.388;11.784;2022-11-13T16:19:02;14.22;67.03
68578;SHT31;61668;45.388;11.784;2022-11-13T16:21:35;14.20;66.91
68578;SHT31;61668;45.388;11.784;2022-11-13T16:24:01;14.18;66.91
68578;SHT31;61668;45.388;11.784;2022-11-13T16:26:26;14.14;66.90
68578;SHT31;61668;45.388;11.784;2022-11-13T16:28:53;14.09;66.98
68578;SHT31;61668;45.388;11.784;2022-11-13T16:31:21;14.05;67.02
68578;SHT31;61668;45.388;11.784;2022-11-13T16:33:49;14.02;66.93
68578;SHT31;61668;45.388;11.784;2022-11-13T16:36:15;13.97;66.79
68578;SHT31;61668;45.388;11.784;2022-11-13T16:38:45;13.93;66.81
68578;SHT31;61668;45.388;11.784;2022-11-13T16:41:15;13.89;66.69
68578;SHT31;61668;45.388;11.784;2022-11-13T16:43:43;13.84;66.68
68578;SHT31;61668;45.388;11.784;2022-11-13T16:46:31;13.82;66.70
68578;SHT31;61668;45.388;11.784;2022-11-13T16:48:57;13.80;66.72
68578;SHT31;61668;45.388;11.784;2022-11-13T16:51:23;13.78;66.80
68578;SHT31;61668;45.388;11.784;2022-11-13T16:53:49;13.77;66.73
68578;SHT31;61668;45.388;11.784;2022-11-13T16:56:19;13.76;66.61
68578;SHT31;61668;45.388;11.784;2022-11-13T16:58:53;13.77;66.68
68578;SHT31;61668;45.388;11.784;2022-11-13T17:01:20;13.78;66.63
68578;SHT31;61668;45.388;11.784;2022-11-13T17:03:48;13.80;66.46
68578;SHT31;61668;45.388;11.784;2022-11-13T17:08:57;13.80;66.41
68578;SHT31;61668;45.388;11.784;2022-11-13T17:11:25;13.79;66.32
68578;SHT31;61668;45.388;11.784;2022-11-13T17:13:54;13.79;66.25
68578;SHT31;61668;45.388;11.784;2022-11-13T17:16:22;13.77;66.31
68578;SHT31;61668;45.388;11.784;2022-11-13T17:18:50;13.76;66.31
68578;SHT31;61668;45.388;11.784;2022-11-13T17:21:27;13.74;66.37